createdAt,value
2019-04-11T00:01:48.146Z,39.50
2019-04-11T00:04:15.868Z,46.00
2019-04-11T00:06:45.152Z,45.37
2019-04-11T00:09:16.770Z,49.83
2019-04-11T00:11:46.204Z,41.13
2019-04-11T00:14:15.925Z,36.97
2019-04-11T00:16:45.619Z,41.07
2019-04-11T00:19:15.600Z,41.10
2019-04-11T00:21:44.730Z,34.83
2019-04-11T00:24:14.457Z,38.20
2019-04-11T00:26:44.369Z,38.90
2019-04-11T00:29:14.361Z,37.37
2019-04-11T00:31:43.388Z,32.37
2019-04-11T00:34:13.034Z,38.95
2019-04-11T00:36:41.991Z,35.52
2019-04-11T00:39:13.429Z,35.27
2019-04-11T00:41:43.140Z,30.20
2019-04-11T00:44:12.340Z,30.60
2019-04-11T00:46:42.608Z,32.03
2019-04-11T00:49:12.376Z,28.73
2019-04-11T00:51:42.345Z,32.33
2019-04-11T00:54:11.783Z,28.20
2019-04-11T00:56:40.790Z,28.20
2019-04-11T00:59:10.480Z,29.33
2019-04-11T01:01:39.524Z,35.25
2019-04-11T01:04:09.656Z,30.57
2019-04-11T01:06:40.452Z,33.33
2019-04-11T01:09:11.000Z,27.20
2019-04-11T01:11:40.433Z,31.17
2019-04-11T01:14:09.865Z,40.45
2019-04-11T01:16:48.467Z,35.00
2019-04-11T01:19:18.448Z,28.40
2019-04-11T01:21:48.771Z,22.58
2019-04-11T01:24:17.945Z,30.57
2019-04-11T01:26:47.665Z,25.77
2019-04-11T01:29:17.565Z,27.10
2019-04-11T01:31:49.855Z,28.17
2019-04-11T01:34:20.251Z,26.60
2019-04-11T01:36:51.215Z,28.80
2019-04-11T01:39:43.369Z,26.77
2019-04-11T01:42:13.252Z,25.97
2019-04-11T01:44:43.025Z,29.90
2019-04-11T01:47:15.022Z,25.57
2019-04-11T01:49:44.150Z,31.35
2019-04-11T01:52:13.987Z,21.02
2019-04-11T01:54:43.866Z,23.75
2019-04-11T01:57:13.874Z,18.80
2019-04-11T02:02:29.020Z,28.13
2019-04-11T02:05:08.373Z,23.92
2019-04-11T02:07:38.590Z,23.47
2019-04-11T02:10:08.534Z,25.50
2019-04-11T02:12:39.355Z,25.68
2019-04-11T02:15:10.190Z,27.85
2019-04-11T02:17:39.567Z,20.60
2019-04-11T02:20:09.155Z,23.02
2019-04-11T02:22:46.528Z,21.48
2019-04-11T02:25:33.948Z,22.45
2019-04-11T02:28:04.415Z,27.15
2019-04-11T02:30:36.333Z,19.80
2019-04-11T02:33:07.261Z,24.45
2019-04-11T02:35:37.377Z,21.47
2019-04-11T02:38:08.194Z,25.10
2019-04-11T02:40:38.864Z,21.40
2019-04-11T02:43:09.843Z,20.92
2019-04-11T02:45:50.861Z,29.42
2019-04-11T02:48:13.241Z,31.20
2019-04-11T02:50:43.140Z,19.07
2019-04-11T02:53:12.581Z,21.17
2019-04-11T02:55:43.745Z,20.33
2019-04-11T02:58:14.506Z,20.83
2019-04-11T03:00:45.091Z,17.53
2019-04-11T03:03:15.001Z,13.83
2019-04-11T03:05:46.319Z,17.30
2019-04-11T03:10:46.051Z,14.87
2019-04-11T03:13:16.560Z,20.40
2019-04-11T04:48:58.453Z,20.10
2019-04-11T04:51:28.704Z,24.45
2019-04-11T04:53:59.890Z,23.15
2019-04-11T04:56:31.732Z,26.33
2019-04-11T04:58:59.793Z,22.87
2019-04-11T05:01:31.084Z,25.47
2019-04-11T05:03:59.956Z,21.53
2019-04-11T05:06:29.166Z,25.77
2019-04-11T05:08:58.243Z,26.47
2019-04-11T05:11:28.361Z,18.87
2019-04-11T05:13:58.705Z,21.37
2019-04-11T05:16:28.335Z,18.83
2019-04-11T05:18:58.290Z,18.87
2019-04-11T05:21:29.627Z,22.13
2019-04-11T05:23:59.056Z,23.80
2019-04-11T05:26:28.413Z,21.43
2019-04-11T05:28:57.607Z,17.97
2019-04-11T05:31:26.979Z,18.27
2019-04-11T05:33:56.136Z,34.83
2019-04-11T05:36:25.207Z,22.50
2019-04-11T05:38:54.832Z,24.10
2019-04-11T05:41:24.667Z,20.33
2019-04-11T05:43:55.618Z,22.13
2019-04-11T05:46:33.471Z,20.30
2019-04-11T05:49:03.836Z,21.63
2019-04-11T05:51:40.926Z,26.70
2019-04-11T05:54:07.488Z,24.77
2019-04-11T05:56:35.875Z,17.87
2019-04-11T05:59:17.227Z,23.23
2019-04-11T06:01:52.986Z,18.57
2019-04-11T06:04:36.353Z,24.87
2019-04-11T06:07:11.915Z,20.10
2019-04-11T06:09:44.149Z,16.57
2019-04-11T06:12:22.225Z,22.40
2019-04-11T06:15:05.976Z,19.33
2019-04-11T06:17:35.022Z,23.40
2019-04-11T06:20:21.946Z,18.33
2019-04-11T06:23:04.970Z,21.17
2019-04-11T06:25:53.397Z,21.37
2019-04-11T06:28:27.209Z,36.23
2019-04-11T06:31:18.650Z,21.47
2019-04-11T06:34:00.777Z,30.30
2019-04-11T06:36:58.267Z,20.30
2019-04-11T06:39:35.718Z,29.73
2019-04-11T06:42:15.594Z,23.73
2019-04-11T06:45:09.201Z,16.37
2019-04-11T06:48:15.713Z,21.77
2019-04-11T06:51:03.872Z,23.13
2019-04-11T06:53:39.996Z,21.50
2019-04-11T06:56:27.206Z,19.57
2019-04-11T06:59:00.165Z,22.10
2019-04-11T07:01:30.271Z,20.10
2019-04-11T07:04:03.444Z,19.20
2019-04-11T07:06:34.088Z,18.97
2019-04-11T07:09:14.561Z,19.73
2019-04-11T07:11:50.704Z,21.77
2019-04-11T07:14:45.531Z,26.53
2019-04-11T07:17:33.789Z,28.40
2019-04-11T07:20:37.900Z,23.23
2019-04-11T07:23:26.352Z,20.90
2019-04-11T08:28:43.837Z,26.93
2019-04-11T08:31:44.588Z,27.90
2019-04-11T08:34:15.195Z,25.03
2019-04-11T08:37:13.421Z,27.73
2019-04-11T08:39:47.077Z,29.30
2019-04-11T08:42:43.398Z,23.83
2019-04-11T08:45:14.528Z,25.60
2019-04-11T08:47:53.903Z,27.93
2019-04-11T11:59:46.656Z,37.90
2019-04-11T12:02:22.391Z,31.73
2019-04-11T12:04:58.876Z,35.90
2019-04-11T12:07:37.032Z,26.77
2019-04-11T12:10:22.464Z,37.13
2019-04-11T12:13:11.618Z,31.50
2019-04-11T12:15:53.163Z,34.90
2019-04-11T12:18:44.974Z,35.57
2019-04-11T12:21:11.541Z,32.03
2019-04-11T12:24:06.602Z,45.20
2019-04-11T12:26:43.218Z,42.00
2019-04-11T12:29:24.324Z,37.07
2019-04-11T12:31:56.400Z,33.30
2019-04-11T12:34:39.089Z,33.53
2019-04-11T12:37:14.860Z,33.70
2019-04-11T12:45:41.429Z,43.43
2019-04-11T12:48:34.385Z,32.90
2019-04-11T12:51:39.933Z,44.10
2019-04-11T12:54:14.466Z,41.93
2019-04-11T12:56:53.800Z,31.93
2019-04-11T12:59:26.667Z,30.83
2019-04-11T13:02:26.679Z,39.97
2019-04-11T13:04:55.843Z,38.97
2019-04-11T13:07:50.283Z,38.40
2019-04-11T13:10:38.201Z,44.53
2019-04-11T13:13:26.204Z,36.27
2019-04-11T13:16:11.402Z,45.80
2019-04-11T13:19:03.567Z,40.07
2019-04-11T13:21:55.005Z,41.17
2019-04-11T13:24:40.560Z,52.93
2019-04-11T13:27:32.297Z,40.07
2019-04-11T13:30:20.628Z,39.60
2019-04-11T13:32:58.015Z,43.00
2019-04-11T13:35:52.512Z,37.83
2019-04-11T13:38:24.783Z,49.33
2019-04-11T13:41:16.301Z,51.53
2019-04-11T13:43:57.665Z,38.50
2019-04-11T13:46:49.089Z,51.93
2019-04-11T13:49:56.181Z,43.83
2019-04-11T13:52:44.021Z,37.10
2019-04-11T13:55:31.241Z,39.60
2019-04-11T13:58:18.561Z,38.40
2019-04-11T14:00:54.824Z,44.90
2019-04-11T14:03:49.021Z,40.33
2019-04-11T14:06:21.526Z,42.40
2019-04-11T14:11:50.495Z,40.07
2019-04-11T14:14:44.980Z,48.63
2019-04-11T14:17:16.951Z,44.40
2019-04-11T14:20:08.779Z,46.43
2019-04-11T14:22:57.629Z,44.10
2019-04-11T14:25:37.824Z,43.53
2019-04-11T14:28:08.231Z,46.50
2019-04-11T14:30:46.735Z,39.60
2019-04-11T14:36:02.225Z,46.77
2019-04-11T14:38:32.316Z,47.53
2019-04-11T14:41:20.276Z,44.63
2019-04-11T14:43:54.179Z,51.73
2019-04-11T14:46:46.519Z,47.13
2019-04-11T14:49:17.050Z,43.10
2019-04-11T14:52:11.436Z,44.33
2019-04-11T14:54:49.283Z,51.47
2019-04-11T14:57:49.053Z,41.33
2019-04-11T15:00:26.849Z,41.67
2019-04-11T15:03:24.207Z,50.93
2019-04-11T15:06:08.048Z,42.10
2019-04-11T15:09:05.264Z,46.20
2019-04-11T15:11:52.629Z,39.80
2019-04-11T15:14:49.498Z,40.07
2019-04-11T15:17:29.215Z,48.73
2019-04-11T15:28:30.719Z,44.80
2019-04-11T15:31:04.440Z,42.87
2019-04-11T15:33:57.793Z,45.13
2019-04-11T15:36:27.863Z,36.57
2019-04-11T15:39:16.769Z,50.83
2019-04-11T15:41:45.813Z,40.97
2019-04-11T15:44:37.474Z,43.00
2019-04-11T15:47:09.382Z,46.07
2019-04-11T15:50:00.507Z,45.27
2019-04-11T15:52:28.544Z,46.90
2019-04-11T15:55:16.981Z,40.03
2019-04-11T15:57:49.568Z,43.67
2019-04-11T16:00:43.607Z,39.50
2019-04-11T16:03:13.433Z,37.13
2019-04-11T16:06:02.102Z,46.37
2019-04-11T16:08:33.344Z,49.07
2019-04-11T16:11:14.931Z,41.23
2019-04-11T16:14:01.836Z,42.37
2019-04-11T16:16:50.200Z,37.60
2019-04-11T16:19:38.116Z,38.90
2019-04-11T16:22:17.968Z,53.00
2019-04-11T16:24:47.163Z,37.50
2019-04-11T16:27:28.046Z,44.43
2019-04-11T16:30:01.739Z,42.40
2019-04-11T16:32:31.876Z,49.00
2019-04-11T16:35:21.123Z,43.53
2019-04-11T16:37:51.040Z,44.63
2019-04-11T16:40:38.472Z,39.67
2019-04-11T16:43:08.849Z,39.33
2019-04-11T16:45:55.835Z,38.73
2019-04-11T16:48:25.702Z,38.47
2019-04-11T16:53:23.115Z,40.60
2019-04-11T16:55:53.887Z,40.73
2019-04-11T16:58:23.015Z,35.17
2019-04-11T17:00:53.231Z,38.20
2019-04-11T17:03:24.934Z,38.40
2019-04-11T17:05:59.888Z,41.40
2019-04-11T17:08:33.706Z,40.83
2019-04-11T17:11:10.799Z,38.07
2019-04-11T17:13:40.129Z,36.03
2019-04-11T17:16:12.148Z,40.40
2019-04-11T17:18:41.471Z,42.63
2019-04-11T17:21:10.723Z,37.53
2019-04-11T17:36:02.912Z,39.00
2019-04-11T17:38:31.913Z,42.08
2019-04-11T17:41:01.075Z,38.65
2019-04-11T17:43:30.638Z,39.10
2019-04-11T17:45:59.891Z,40.70
2019-04-11T17:48:28.770Z,39.48
2019-04-11T17:50:58.484Z,43.55
2019-04-11T17:53:28.019Z,36.85
2019-04-11T17:55:57.382Z,49.60
2019-04-11T17:58:27.354Z,43.60
2019-04-11T18:01:00.391Z,40.58
2019-04-11T18:03:29.558Z,51.03
2019-04-11T18:05:59.350Z,45.28
2019-04-11T18:08:28.612Z,38.63
2019-04-11T18:10:58.486Z,39.10
2019-04-11T18:13:31.433Z,39.50
2019-04-11T18:16:01.193Z,41.73
2019-04-11T18:18:34.802Z,41.42
2019-04-11T18:21:02.522Z,37.28
2019-04-11T18:23:32.787Z,43.28
2019-04-11T18:26:01.944Z,40.58
2019-04-11T18:28:31.595Z,31.65
2019-04-11T18:31:01.214Z,36.80
2019-04-11T18:33:31.749Z,38.13
2019-04-11T18:36:02.234Z,35.48
2019-04-11T18:38:32.122Z,40.57
2019-04-11T18:41:01.803Z,42.50
2019-04-11T18:43:31.936Z,35.03
2019-04-11T18:46:01.116Z,38.20
2019-04-11T18:48:30.628Z,36.60
2019-04-11T18:51:00.204Z,36.93
2019-04-11T18:53:29.134Z,35.25
2019-04-11T18:55:58.296Z,38.25
2019-04-11T18:58:27.294Z,45.60
2019-04-11T19:00:56.323Z,44.40
2019-04-11T19:03:35.773Z,36.58
2019-04-11T19:05:56.738Z,39.13
2019-04-11T19:08:26.346Z,36.45
2019-04-11T19:10:55.856Z,48.38
2019-04-11T19:13:24.787Z,39.23
2019-04-11T19:15:54.323Z,34.25
2019-04-11T19:18:23.195Z,35.68
2019-04-11T19:20:52.719Z,38.02
2019-04-11T19:23:22.229Z,36.65
2019-04-11T19:25:51.615Z,40.15
2019-04-11T19:28:20.543Z,40.15
2019-04-11T19:30:49.498Z,36.10
2019-04-11T19:33:19.256Z,39.35
2019-04-11T19:35:48.326Z,36.55
2019-04-11T19:38:25.875Z,36.47
2019-04-11T19:40:55.690Z,35.45
2019-04-11T19:43:25.478Z,43.25
2019-04-11T19:45:54.412Z,37.80
2019-04-11T19:48:25.130Z,37.67
2019-04-11T19:50:58.612Z,37.63
2019-04-11T19:53:25.491Z,35.43
2019-04-11T19:56:12.918Z,33.87
2019-04-11T19:58:41.951Z,36.77
2019-04-11T20:01:10.966Z,36.60
2019-04-11T20:03:40.100Z,34.80
2019-04-11T20:06:09.117Z,34.73
2019-04-11T20:08:38.297Z,36.00
2019-04-11T20:11:07.493Z,34.35
2019-04-11T20:13:36.689Z,36.10
2019-04-11T20:16:05.635Z,34.67
2019-04-11T20:18:34.582Z,39.65
2019-04-11T20:21:07.251Z,34.08
2019-04-11T20:23:35.334Z,33.92
2019-04-11T20:26:04.364Z,47.60
2019-04-11T20:28:33.382Z,37.67
2019-04-11T20:31:02.546Z,34.10
2019-04-11T20:33:34.690Z,40.98
2019-04-11T20:36:02.785Z,34.90
2019-04-11T20:58:27.048Z,27.10
2019-04-11T21:00:55.621Z,32.20
2019-04-11T21:03:21.704Z,27.17
2019-04-11T21:05:50.640Z,33.50
2019-04-11T21:08:19.571Z,32.33
2019-04-11T21:10:48.838Z,30.70
2019-04-11T21:13:18.336Z,29.17
2019-04-11T21:15:47.331Z,29.60
2019-04-11T21:18:16.460Z,28.67
2019-04-11T21:20:45.619Z,30.20
2019-04-11T21:23:24.023Z,30.63
2019-04-11T21:25:45.660Z,26.80
2019-04-11T21:28:14.872Z,26.70
2019-04-11T21:30:44.053Z,27.37
2019-04-11T21:33:13.242Z,30.43
2019-04-11T21:35:42.087Z,31.30
2019-04-11T21:38:11.014Z,24.23
2019-04-11T21:40:40.224Z,23.63
2019-04-11T21:43:09.223Z,30.63
2019-04-11T21:45:38.148Z,26.17
2019-04-11T21:48:07.451Z,30.80
2019-04-11T21:50:40.303Z,27.80
2019-04-11T21:53:07.471Z,25.53
2019-04-11T21:55:36.354Z,25.03
2019-04-11T21:58:05.731Z,27.30
2019-04-11T22:00:42.398Z,28.77
2019-04-11T23:05:31.584Z,24.57
2019-04-11T23:08:02.764Z,25.30
2019-04-11T23:10:31.804Z,25.23
2019-04-11T23:13:00.680Z,27.85
2019-04-11T23:15:30.096Z,24.00
2019-04-11T23:17:59.600Z,27.42
2019-04-11T23:20:28.745Z,25.60
2019-04-11T23:22:57.891Z,21.80
2019-04-11T23:25:27.380Z,21.90
2019-04-11T23:27:56.804Z,22.10
2019-04-11T23:30:26.093Z,21.50
2019-04-11T23:32:55.294Z,23.55
2019-04-11T23:35:24.312Z,21.05
2019-04-11T23:37:53.487Z,20.97
2019-04-11T23:40:23.371Z,22.20
2019-04-11T23:42:52.935Z,22.87
2019-04-11T23:45:24.807Z,19.17
2019-04-11T23:47:54.453Z,22.77
2019-04-11T23:50:25.275Z,22.35
2019-04-11T23:52:57.320Z,22.37
2019-04-11T23:55:25.440Z,20.27
2019-04-11T23:57:54.708Z,20.45
